Time;durP1;ratioP1;P1;durP2;ratioP2;P2;SDS_P1;SDS_P2;PMS_P1;PMS_P2;Temp;Humidity;BMP_temperature;BMP_pressure;BME280_temperature;BME280_humidity;BME280_pressure;Samples;Min_cycle;Max_cycle;Signal;HPM_P1;HPM_P2
2022/10/09 00:00:23;;;;;;;3.50;2.53;;;;;;;;;;5040471;28;20208;-83
2022/10/09 00:02:51;;;;;;;6.47;4.80;;;;;;;;;;5056438;28;20289;-83
2022/10/09 00:05:22;;;;;;;2.60;2.40;;;;;;;;;;5055028;28;20232;-83
2022/10/09 00:07:52;;;;;;;4.50;4.10;;;;;;;;;;5055133;28;20224;-83
2022/10/09 00:10:20;;;;;;;5.70;4.97;;;;;;;;;;5054878;28;20209;-83
2022/10/09 00:12:49;;;;;;;0.70;0.70;;;;;;;;;;5071405;28;20211;-83
2022/10/09 00:15:18;;;;;;;0.70;0.70;;;;;;;;;;5030634;28;20208;-83
2022/10/09 00:17:46;;;;;;;11.70;5.13;;;;;;;;;;5058148;28;20203;-83
2022/10/09 00:20:14;;;;;;;1.07;1.07;;;;;;;;;;5060258;28;20212;-83
2022/10/09 00:22:43;;;;;;;5.43;4.27;;;;;;;;;;5054173;28;20214;-83
2022/10/09 00:25:13;;;;;;;8.27;5.33;;;;;;;;;;5046884;28;20200;-83
2022/10/09 00:27:41;;;;;;;7.63;3.90;;;;;;;;;;5038852;28;20222;-83
2022/10/09 00:30:10;;;;;;;7.30;3.97;;;;;;;;;;5071672;28;20196;-83
2022/10/09 00:32:38;;;;;;;9.03;4.00;;;;;;;;;;5058260;28;20217;-83
2022/10/09 00:35:07;;;;;;;3.13;2.23;;;;;;;;;;5056075;28;20204;-83
2022/10/09 00:37:35;;;;;;;1.53;1.53;;;;;;;;;;5050765;28;20228;-83
2022/10/09 00:40:04;;;;;;;0.83;0.83;;;;;;;;;;5052304;28;20230;-83
2022/10/09 00:42:34;;;;;;;2.03;1.97;;;;;;;;;;5040606;28;20193;-83
2022/10/09 00:45:03;;;;;;;1.00;1.00;;;;;;;;;;5055322;28;20209;-83
2022/10/09 00:47:34;;;;;;;1.07;1.07;;;;;;;;;;5052802;28;20215;-82
2022/10/09 00:50:05;;;;;;;1.77;1.67;;;;;;;;;;5053972;28;20261;-83
2022/10/09 00:52:34;;;;;;;20.83;3.07;;;;;;;;;;5034922;28;20229;-83
2022/10/09 00:55:03;;;;;;;0.97;0.97;;;;;;;;;;5034967;28;20242;-83
2022/10/09 00:57:32;;;;;;;0.70;0.70;;;;;;;;;;5071263;28;20227;-82
2022/10/09 01:00:02;;;;;;;0.60;0.60;;;;;;;;;;5054050;28;20234;-82
2022/10/09 01:02:31;;;;;;;0.80;0.80;;;;;;;;;;5063100;28;20232;-83
2022/10/09 01:05:00;;;;;;;1.43;1.43;;;;;;;;;;5034665;28;20233;-83
2022/10/09 01:07:34;;;;;;;1.63;1.53;;;;;;;;;;5035937;28;20201;-83
2022/10/09 01:10:08;;;;;;;0.70;0.70;;;;;;;;;;5039302;28;20191;-83
2022/10/09 01:12:40;;;;;;;1.40;1.40;;;;;;;;;;5054467;28;20199;-83
2022/10/09 01:15:14;;;;;;;0.80;0.80;;;;;;;;;;5070675;28;20230;-83
2022/10/09 01:17:44;;;;;;;1.10;1.10;;;;;;;;;;5070137;28;20261;-83
2022/10/09 01:20:25;;;;;;;0.63;0.63;;;;;;;;;;5035669;28;20201;-83
2022/10/09 01:23:02;;;;;;;2.23;2.13;;;;;;;;;;5065229;28;20265;-83
2022/10/09 01:25:34;;;;;;;1.30;1.30;;;;;;;;;;5035362;28;20197;-83
2022/10/09 01:28:05;;;;;;;0.70;0.70;;;;;;;;;;5029473;28;20220;-83
2022/10/09 01:30:35;;;;;;;0.90;0.90;;;;;;;;;;5041016;28;20227;-83
2022/10/09 01:33:05;;;;;;;0.67;0.67;;;;;;;;;;5052558;28;20219;-83
2022/10/09 01:35:33;;;;;;;0.67;0.67;;;;;;;;;;5053416;28;20207;-83
2022/10/09 01:38:02;;;;;;;0.60;0.60;;;;;;;;;;5039935;28;20210;-83
2022/10/09 01:40:31;;;;;;;1.90;1.80;;;;;;;;;;5042243;28;20235;-83
2022/10/09 01:43:00;;;;;;;2.57;2.37;;;;;;;;;;5054447;28;20253;-83
2022/10/09 01:45:37;;;;;;;1.20;1.20;;;;;;;;;;5050990;28;20225;-83
2022/10/09 01:48:06;;;;;;;0.87;0.87;;;;;;;;;;5033815;28;20231;-83
2022/10/09 01:50:35;;;;;;;1.30;1.30;;;;;;;;;;5037381;28;20321;-83
2022/10/09 01:53:06;;;;;;;0.77;0.77;;;;;;;;;;5043436;28;20208;-83
2022/10/09 01:55:39;;;;;;;2.13;2.13;;;;;;;;;;5038847;28;20189;-83
2022/10/09 01:58:10;;;;;;;0.60;0.60;;;;;;;;;;5053448;28;20208;-83
2022/10/09 02:00:42;;;;;;;0.60;0.60;;;;;;;;;;5050578;28;20278;-83
2022/10/09 02:03:12;;;;;;;1.47;1.43;;;;;;;;;;5045827;28;20212;-83
2022/10/09 02:05:41;;;;;;;1.23;1.23;;;;;;;;;;5053869;28;20208;-83
2022/10/09 02:08:10;;;;;;;2.37;2.17;;;;;;;;;;5038817;28;20209;-83
2022/10/09 02:10:38;;;;;;;2.00;1.13;;;;;;;;;;5042172;28;20195;-83
2022/10/09 02:13:07;;;;;;;1.33;1.33;;;;;;;;;;5052584;28;20262;-83
2022/10/09 02:15:40;;;;;;;1.13;1.13;;;;;;;;;;5054271;28;20290;-82
2022/10/09 02:18:12;;;;;;;0.80;0.80;;;;;;;;;;5049340;28;20198;-83
2022/10/09 02:20:45;;;;;;;0.60;0.60;;;;;;;;;;5044470;28;20242;-82
2022/10/09 02:23:14;;;;;;;0.70;0.70;;;;;;;;;;5035729;28;20228;-83
2022/10/09 02:25:42;;;;;;;1.00;1.00;;;;;;;;;;5033424;28;20255;-83
2022/10/09 02:28:11;;;;;;;5.23;4.93;;;;;;;;;;5063140;28;20235;-83
2022/10/09 02:30:44;;;;;;;0.90;0.90;;;;;;;;;;5034422;28;20230;-83
2022/10/09 02:33:14;;;;;;;0.70;0.70;;;;;;;;;;5041036;28;20206;-82
2022/10/09 02:35:43;;;;;;;0.70;0.70;;;;;;;;;;5066777;28;20294;-83
2022/10/09 02:38:11;;;;;;;3.57;3.37;;;;;;;;;;5042013;28;20255;-82
2022/10/09 02:40:40;;;;;;;0.80;0.80;;;;;;;;;;5066116;28;20207;-82
2022/10/09 02:43:08;;;;;;;0.70;0.70;;;;;;;;;;5042380;28;20194;-83
2022/10/09 02:45:36;;;;;;;1.47;1.40;;;;;;;;;;5066598;28;20313;-83
2022/10/09 02:48:05;;;;;;;5.17;4.67;;;;;;;;;;5032555;28;20295;-83
2022/10/09 02:50:35;;;;;;;4.47;4.17;;;;;;;;;;5035308;28;20266;-83
2022/10/09 02:53:03;;;;;;;3.80;3.50;;;;;;;;;;5049932;28;20260;-84
2022/10/09 02:55:32;;;;;;;9.63;6.50;;;;;;;;;;5044008;28;20209;-83
2022/10/09 02:58:00;;;;;;;3.27;3.00;;;;;;;;;;5039525;28;20215;-83
2022/10/09 03:00:28;;;;;;;3.23;2.93;;;;;;;;;;5038919;28;20315;-83
2022/10/09 03:03:00;;;;;;;8.10;4.50;;;;;;;;;;5052240;28;20220;-83
2022/10/09 03:05:31;;;;;;;5.13;4.63;;;;;;;;;;5051523;28;20225;-83
2022/10/09 03:08:01;;;;;;;3.50;1.73;;;;;;;;;;5032385;28;20201;-83
2022/10/09 03:10:29;;;;;;;0.70;0.70;;;;;;;;;;5032316;28;20212;-83
2022/10/09 03:12:57;;;;;;;1.03;1.03;;;;;;;;;;5051368;28;20264;-82
2022/10/09 03:15:28;;;;;;;1.10;1.10;;;;;;;;;;5038735;28;20205;-82
2022/10/09 03:17:57;;;;;;;0.60;0.60;;;;;;;;;;5020757;28;20234;-83
2022/10/09 03:20:25;;;;;;;0.70;0.70;;;;;;;;;;5032451;28;20196;-83
2022/10/09 03:22:54;;;;;;;1.10;1.10;;;;;;;;;;5046382;28;20230;-82
2022/10/09 03:25:24;;;;;;;0.60;0.60;;;;;;;;;;5052165;28;20233;-83
2022/10/09 03:27:53;;;;;;;5.13;4.17;;;;;;;;;;5051277;28;20223;-82
2022/10/09 03:30:21;;;;;;;3.43;3.13;;;;;;;;;;5043691;28;20273;-83
2022/10/09 03:32:50;;;;;;;14.53;7.50;;;;;;;;;;5035067;28;20212;-83
2022/10/09 03:35:18;;;;;;;9.53;4.60;;;;;;;;;;5051558;28;20204;-82
2022/10/09 03:37:47;;;;;;;1.33;1.33;;;;;;;;;;5052118;28;20235;-83
2022/10/09 03:40:15;;;;;;;9.67;4.03;;;;;;;;;;5042019;28;20235;-83
2022/10/09 03:42:45;;;;;;;7.23;5.57;;;;;;;;;;5032253;28;20235;-82
2022/10/09 03:45:14;;;;;;;3.97;3.67;;;;;;;;;;5043567;28;20204;-83
2022/10/09 03:47:43;;;;;;;9.33;5.50;;;;;;;;;;5038384;28;20292;-82
2022/10/09 03:50:11;;;;;;;15.13;7.77;;;;;;;;;;5056188;28;20221;-82
2022/10/09 03:52:40;;;;;;;9.23;5.57;;;;;;;;;;5045757;28;20214;-82
2022/10/09 03:55:08;;;;;;;8.37;6.67;;;;;;;;;;5045554;28;20195;-82
2022/10/09 03:57:37;;;;;;;8.97;5.20;;;;;;;;;;5060647;28;20231;-83
2022/10/09 04:00:08;;;;;;;11.63;7.80;;;;;;;;;;5031856;28;20200;-83
2022/10/09 04:02:36;;;;;;;13.90;9.90;;;;;;;;;;5048604;28;20267;-82
2022/10/09 04:05:05;;;;;;;3.60;3.07;;;;;;;;;;5032885;28;20208;-82
2022/10/09 04:07:34;;;;;;;14.53;8.53;;;;;;;;;;5032348;28;20227;-82
2022/10/09 04:10:02;;;;;;;10.30;7.70;;;;;;;;;;5020222;28;20299;-82
2022/10/09 04:12:30;;;;;;;11.53;8.43;;;;;;;;;;5043328;28;20197;-82
2022/10/09 04:14:59;;;;;;;9.17;7.17;;;;;;;;;;5046729;28;20201;-83
2022/10/09 04:17:28;;;;;;;12.70;9.10;;;;;;;;;;5052051;28;20262;-83
2022/10/09 04:19:57;;;;;;;8.83;7.07;;;;;;;;;;5036558;28;20227;-83
2022/10/09 04:22:26;;;;;;;18.00;9.10;;;;;;;;;;5033207;28;20227;-83
2022/10/09 04:24:54;;;;;;;14.43;11.13;;;;;;;;;;5048630;28;20192;-82
2022/10/09 04:27:23;;;;;;;15.23;9.23;;;;;;;;;;5062818;28;20286;-83
2022/10/09 04:29:51;;;;;;;14.47;9.60;;;;;;;;;;5054501;28;20306;-83
2022/10/09 04:32:19;;;;;;;14.43;8.17;;;;;;;;;;5054984;28;20221;-82
2022/10/09 04:34:49;;;;;;;12.00;10.20;;;;;;;;;;5045553;28;20260;-82
2022/10/09 04:37:17;;;;;;;19.67;12.73;;;;;;;;;;5042424;28;20306;-83
2022/10/09 04:39:46;;;;;;;17.23;11.60;;;;;;;;;;5052846;28;20229;-82
2022/10/09 04:42:14;;;;;;;15.00;10.57;;;;;;;;;;5053245;28;20287;-83
2022/10/09 04:44:42;;;;;;;18.37;10.33;;;;;;;;;;5053161;28;20298;-82
2022/10/09 04:47:11;;;;;;;15.50;6.57;;;;;;;;;;5052084;28;20198;-82
2022/10/09 04:49:39;;;;;;;20.60;10.70;;;;;;;;;;5047515;28;20338;-82
2022/10/09 04:52:09;;;;;;;9.83;7.13;;;;;;;;;;5037374;28;20223;-83
2022/10/09 04:54:37;;;;;;;14.47;10.37;;;;;;;;;;5044940;28;20200;-83
2022/10/09 04:57:06;;;;;;;24.50;11.27;;;;;;;;;;5052142;28;20205;-82
2022/10/09 04:59:34;;;;;;;13.03;8.97;;;;;;;;;;5054398;28;20217;-82
2022/10/09 05:02:02;;;;;;;9.93;7.23;;;;;;;;;;5038402;28;20219;-82
2022/10/09 05:04:31;;;;;;;12.77;8.17;;;;;;;;;;5034679;28;20198;-82
2022/10/09 05:06:59;;;;;;;16.93;9.80;;;;;;;;;;5021497;28;20211;-82
2022/10/09 05:09:29;;;;;;;7.70;5.23;;;;;;;;;;5044605;28;20287;-83
2022/10/09 05:11:57;;;;;;;22.27;10.77;;;;;;;;;;5054328;28;20245;-82
2022/10/09 05:14:26;;;;;;;7.03;5.57;;;;;;;;;;5042813;28;20203;-83
2022/10/09 05:16:56;;;;;;;15.20;7.87;;;;;;;;;;5052486;28;20196;-83
2022/10/09 05:19:41;;;;;;;16.20;9.03;;;;;;;;;;5028832;28;20206;-83
2022/10/09 05:22:09;;;;;;;12.67;8.17;;;;;;;;;;5054054;28;20195;-82
2022/10/09 05:24:39;;;;;;;14.47;11.80;;;;;;;;;;5040762;28;20218;-83
2022/10/09 05:27:07;;;;;;;12.00;8.37;;;;;;;;;;5054346;28;20248;-82
2022/10/09 05:29:35;;;;;;;17.00;11.23;;;;;;;;;;5038949;28;20200;-83
2022/10/09 05:32:04;;;;;;;18.83;10.67;;;;;;;;;;5044213;28;20207;-83
2022/10/09 05:34:34;;;;;;;15.23;9.53;;;;;;;;;;5050236;28;20294;-83
2022/10/09 05:37:02;;;;;;;20.93;8.93;;;;;;;;;;5034139;28;20276;-82
2022/10/09 05:39:31;;;;;;;13.80;9.30;;;;;;;;;;5051124;28;20249;-83
2022/10/09 05:42:01;;;;;;;16.07;10.23;;;;;;;;;;5054996;28;20187;-82
2022/10/09 05:44:29;;;;;;;18.07;10.03;;;;;;;;;;5053704;28;20206;-82
2022/10/09 05:46:57;;;;;;;14.33;10.37;;;;;;;;;;5053602;28;20238;-83
2022/10/09 05:49:26;;;;;;;16.20;9.87;;;;;;;;;;5036138;28;20204;-82
2022/10/09 05:51:54;;;;;;;15.63;9.60;;;;;;;;;;5035320;28;20222;-82
2022/10/09 05:54:23;;;;;;;14.70;10.27;;;;;;;;;;5052899;28;20237;-82
2022/10/09 05:56:51;;;;;;;5.80;5.20;;;;;;;;;;5051747;28;20206;-82
2022/10/09 05:59:21;;;;;;;17.20;10.33;;;;;;;;;;5047142;28;20238;-83
2022/10/09 06:01:50;;;;;;;15.23;11.17;;;;;;;;;;5033525;28;20242;-83
2022/10/09 06:04:20;;;;;;;13.57;10.73;;;;;;;;;;5033800;28;20203;-82
2022/10/09 06:06:48;;;;;;;14.63;9.93;;;;;;;;;;5035211;28;20228;-83
2022/10/09 06:09:17;;;;;;;15.00;11.43;;;;;;;;;;5035015;28;20204;-83
2022/10/09 06:11:46;;;;;;;17.07;12.60;;;;;;;;;;5036636;28;20242;-82
2022/10/09 06:14:14;;;;;;;14.23;9.20;;;;;;;;;;5043690;28;20210;-83
2022/10/09 06:16:45;;;;;;;16.13;10.37;;;;;;;;;;5049502;28;20191;-82
2022/10/09 06:19:14;;;;;;;16.30;10.80;;;;;;;;;;5054105;28;20201;-83
2022/10/09 06:21:43;;;;;;;18.23;12.30;;;;;;;;;;5052713;28;20216;-82
2022/10/09 06:24:17;;;;;;;14.47;10.20;;;;;;;;;;5052801;28;20240;-82
2022/10/09 06:26:45;;;;;;;10.80;9.37;;;;;;;;;;5033184;28;20201;-83
2022/10/09 06:29:13;;;;;;;13.07;10.40;;;;;;;;;;5034061;28;20204;-82
2022/10/09 06:31:42;;;;;;;15.43;10.77;;;;;;;;;;5046382;28;20212;-83
2022/10/09 06:34:11;;;;;;;9.77;7.83;;;;;;;;;;5034219;28;20200;-82
2022/10/09 06:36:40;;;;;;;15.57;11.87;;;;;;;;;;5033032;28;20238;-82
2022/10/09 06:39:08;;;;;;;17.70;10.57;;;;;;;;;;5048258;28;20249;-83
2022/10/09 06:41:37;;;;;;;8.77;7.67;;;;;;;;;;5044430;28;20223;-83
2022/10/09 06:44:07;;;;;;;13.20;11.43;;;;;;;;;;5019607;28;20204;-82
2022/10/09 06:46:41;;;;;;;11.43;8.53;;;;;;;;;;5032931;28;20303;-82
2022/10/09 06:49:12;;;;;;;13.73;7.67;;;;;;;;;;5036789;28;20277;-82
2022/10/09 06:51:40;;;;;;;11.57;9.37;;;;;;;;;;5052389;28;20245;-82
2022/10/09 06:54:11;;;;;;;3.97;3.57;;;;;;;;;;5059351;28;20200;-83
2022/10/09 06:56:40;;;;;;;13.43;10.73;;;;;;;;;;5052357;28;20262;-83
2022/10/09 06:59:10;;;;;;;15.10;11.87;;;;;;;;;;5052529;28;20290;-82
2022/10/09 07:01:39;;;;;;;12.47;10.60;;;;;;;;;;5040988;28;20273;-82
2022/10/09 07:04:09;;;;;;;15.13;12.07;;;;;;;;;;5039672;28;20212;-82
2022/10/09 07:06:40;;;;;;;12.23;10.97;;;;;;;;;;5038446;28;20196;-83
2022/10/09 07:09:10;;;;;;;11.37;8.83;;;;;;;;;;5040170;28;20234;-82
2022/10/09 07:11:39;;;;;;;16.60;11.97;;;;;;;;;;5050165;28;20215;-83
2022/10/09 07:14:08;;;;;;;16.87;9.27;;;;;;;;;;5033561;28;20202;-82
2022/10/09 07:16:38;;;;;;;12.03;9.67;;;;;;;;;;5035581;28;20201;-82
2022/10/09 07:19:09;;;;;;;12.37;9.57;;;;;;;;;;5058975;28;20228;-83
2022/10/09 07:21:40;;;;;;;10.83;8.27;;;;;;;;;;5033832;28;20195;-83
2022/10/09 07:24:09;;;;;;;11.07;9.47;;;;;;;;;;5043525;28;20204;-83
2022/10/09 07:26:39;;;;;;;14.57;9.57;;;;;;;;;;5037411;28;20274;-82
2022/10/09 07:29:11;;;;;;;11.83;10.53;;;;;;;;;;5039973;28;20285;-82
2022/10/09 07:31:40;;;;;;;10.60;9.00;;;;;;;;;;5061340;28;20232;-82
2022/10/09 07:34:08;;;;;;;10.53;7.47;;;;;;;;;;5034007;28;20209;-83
2022/10/09 07:36:36;;;;;;;11.33;8.60;;;;;;;;;;5020246;28;20251;-82
2022/10/09 07:39:06;;;;;;;13.83;7.97;;;;;;;;;;5046315;28;20269;-83
2022/10/09 07:41:36;;;;;;;13.33;9.50;;;;;;;;;;5051130;28;20204;-82
2022/10/09 07:44:05;;;;;;;11.63;7.70;;;;;;;;;;5038768;28;20213;-83
2022/10/09 07:46:33;;;;;;;9.23;6.30;;;;;;;;;;5052554;28;20273;-83
2022/10/09 07:49:02;;;;;;;10.77;7.93;;;;;;;;;;5036595;28;20214;-83
2022/10/09 07:51:30;;;;;;;7.37;6.30;;;;;;;;;;5041048;28;20239;-82
2022/10/09 07:54:00;;;;;;;10.80;7.57;;;;;;;;;;5068250;28;20223;-82
2022/10/09 07:56:31;;;;;;;11.07;7.03;;;;;;;;;;5051261;28;20232;-82
2022/10/09 07:59:00;;;;;;;8.67;6.20;;;;;;;;;;5050767;28;20228;-83
2022/10/09 08:01:30;;;;;;;11.70;7.67;;;;;;;;;;5046934;28;20303;-83
2022/10/09 08:03:59;;;;;;;10.63;7.37;;;;;;;;;;5055432;28;20186;-83
2022/10/09 08:06:28;;;;;;;10.10;6.77;;;;;;;;;;5044271;28;20209;-83
2022/10/09 08:08:57;;;;;;;9.33;5.07;;;;;;;;;;5042725;28;20261;-83
2022/10/09 08:11:26;;;;;;;8.47;4.87;;;;;;;;;;5042323;28;20296;-83
2022/10/09 08:13:57;;;;;;;7.83;3.87;;;;;;;;;;5029718;28;20210;-82
2022/10/09 08:16:26;;;;;;;9.90;5.60;;;;;;;;;;5054833;28;20275;-83
2022/10/09 08:18:55;;;;;;;6.07;4.87;;;;;;;;;;5055326;28;20183;-82
2022/10/09 08:21:24;;;;;;;4.57;3.83;;;;;;;;;;5054138;28;20232;-83
2022/10/09 08:23:54;;;;;;;7.73;5.33;;;;;;;;;;5036289;28;20272;-82
2022/10/09 08:26:23;;;;;;;11.60;5.77;;;;;;;;;;5036002;28;20218;-83
2022/10/09 08:28:52;;;;;;;9.27;6.20;;;;;;;;;;5045207;28;20225;-83
2022/10/09 08:31:22;;;;;;;4.27;3.87;;;;;;;;;;5067867;28;20286;-83
2022/10/09 08:33:52;;;;;;;13.10;6.50;;;;;;;;;;5036739;28;20218;-83
2022/10/09 08:36:21;;;;;;;15.37;7.30;;;;;;;;;;5036843;28;20252;-82
2022/10/09 08:38:49;;;;;;;8.57;5.50;;;;;;;;;;5036114;28;20226;-83
2022/10/09 08:41:23;;;;;;;2.87;2.50;;;;;;;;;;5040925;28;20237;-83
2022/10/09 08:43:53;;;;;;;7.30;3.10;;;;;;;;;;5055003;28;20199;-83
2022/10/09 08:46:24;;;;;;;12.87;4.77;;;;;;;;;;5054938;28;20202;-83
2022/10/09 08:48:54;;;;;;;11.37;6.27;;;;;;;;;;5052106;28;20206;-83
2022/10/09 08:51:24;;;;;;;6.60;5.40;;;;;;;;;;5044018;28;20268;-83
2022/10/09 08:53:56;;;;;;;10.93;6.00;;;;;;;;;;5059057;28;20214;-83
2022/10/09 08:56:25;;;;;;;9.00;4.47;;;;;;;;;;5052679;28;20213;-83
2022/10/09 08:58:54;;;;;;;10.13;4.90;;;;;;;;;;5037622;28;20194;-82
2022/10/09 09:01:27;;;;;;;9.67;6.30;;;;;;;;;;5034949;28;20282;-83
2022/10/09 09:04:01;;;;;;;6.13;4.40;;;;;;;;;;5039634;28;20244;-83
2022/10/09 09:06:33;;;;;;;7.47;3.30;;;;;;;;;;5055815;28;20202;-83
2022/10/09 09:09:06;;;;;;;10.03;5.20;;;;;;;;;;5022958;28;20282;-83
2022/10/09 09:11:38;;;;;;;3.63;3.07;;;;;;;;;;5048155;28;20198;-83
2022/10/09 09:14:18;;;;;;;7.70;5.00;;;;;;;;;;5043071;28;20214;-83
2022/10/09 09:16:52;;;;;;;2.40;2.07;;;;;;;;;;5041736;28;20225;-83
2022/10/09 09:19:32;;;;;;;10.17;5.00;;;;;;;;;;5047759;28;20257;-83
2022/10/09 09:22:01;;;;;;;7.53;5.17;;;;;;;;;;5035433;28;20199;-83
2022/10/09 09:24:34;;;;;;;8.33;3.50;;;;;;;;;;5050645;28;20195;-83
2022/10/09 09:27:04;;;;;;;1.03;1.03;;;;;;;;;;5035728;28;20227;-83
2022/10/09 09:29:39;;;;;;;6.83;3.90;;;;;;;;;;5049742;28;20222;-83
2022/10/09 09:32:15;;;;;;;6.30;3.37;;;;;;;;;;5054238;28;20201;-83
2022/10/09 09:34:43;;;;;;;7.03;3.90;;;;;;;;;;5052376;28;20246;-84
2022/10/09 09:37:12;;;;;;;7.57;3.93;;;;;;;;;;5035562;28;20235;-83
2022/10/09 09:39:40;;;;;;;6.63;3.60;;;;;;;;;;5056578;28;20217;-83
2022/10/09 09:42:29;;;;;;;8.20;4.07;;;;;;;;;;5055241;28;20218;-83
2022/10/09 09:44:59;;;;;;;7.10;4.30;;;;;;;;;;5033985;28;20269;-83
2022/10/09 09:47:33;;;;;;;7.27;3.07;;;;;;;;;;5050024;28;20217;-83
2022/10/09 09:50:02;;;;;;;4.93;2.00;;;;;;;;;;5053555;28;20222;-83
2022/10/09 09:52:35;;;;;;;7.70;3.87;;;;;;;;;;5052652;28;20260;-83
2022/10/09 09:55:04;;;;;;;9.93;4.43;;;;;;;;;;5053115;28;20218;-83
2022/10/09 09:57:35;;;;;;;8.93;4.60;;;;;;;;;;5051539;28;20227;-83
2022/10/09 10:00:21;;;;;;;7.87;4.23;;;;;;;;;;5057508;28;20234;-83
2022/10/09 10:02:51;;;;;;;4.70;2.67;;;;;;;;;;5048201;28;20272;-83
2022/10/09 10:05:25;;;;;;;6.53;3.20;;;;;;;;;;5050449;28;20211;-83
2022/10/09 10:07:56;;;;;;;7.63;3.53;;;;;;;;;;5033676;28;20210;-83
2022/10/09 10:10:27;;;;;;;6.67;3.90;;;;;;;;;;5039097;28;20203;-83
2022/10/09 10:12:57;;;;;;;5.50;2.30;;;;;;;;;;5057684;28;20243;-83
2022/10/09 10:15:27;;;;;;;5.43;3.30;;;;;;;;;;5039047;28;20194;-83
2022/10/09 10:18:01;;;;;;;6.60;3.10;;;;;;;;;;5054033;28;20231;-83
2022/10/09 10:20:30;;;;;;;6.53;3.33;;;;;;;;;;5021695;28;20230;-83
2022/10/09 10:23:00;;;;;;;5.93;3.03;;;;;;;;;;5033881;28;20676;-83
2022/10/09 10:25:31;;;;;;;5.17;2.97;;;;;;;;;;5024853;28;20294;-83
2022/10/09 10:28:02;;;;;;;5.57;3.33;;;;;;;;;;5046725;28;20290;-83
2022/10/09 10:30:31;;;;;;;10.17;4.17;;;;;;;;;;5069967;28;20207;-83
2022/10/09 10:33:03;;;;;;;5.00;3.50;;;;;;;;;;5052323;28;20341;-83
2022/10/09 10:35:34;;;;;;;6.13;4.20;;;;;;;;;;5041285;28;20207;-83
2022/10/09 10:38:05;;;;;;;7.67;3.63;;;;;;;;;;5051155;28;20239;-83
2022/10/09 10:40:36;;;;;;;7.57;2.87;;;;;;;;;;5039751;28;20204;-83
2022/10/09 10:43:08;;;;;;;8.47;4.33;;;;;;;;;;5028462;28;20216;-83
2022/10/09 10:45:41;;;;;;;10.77;4.70;;;;;;;;;;5051983;28;20204;-83
2022/10/09 10:48:13;;;;;;;6.73;3.57;;;;;;;;;;5044988;28;20224;-83
2022/10/09 10:50:43;;;;;;;6.80;4.47;;;;;;;;;;5034393;28;20278;-83
2022/10/09 10:53:15;;;;;;;6.17;3.70;;;;;;;;;;5034281;28;20223;-82
2022/10/09 10:55:48;;;;;;;5.87;3.67;;;;;;;;;;5033741;28;20196;-83
2022/10/09 10:58:23;;;;;;;6.93;3.80;;;;;;;;;;5044018;28;20200;-83
2022/10/09 11:00:54;;;;;;;9.90;4.37;;;;;;;;;;5038826;28;20200;-83
2022/10/09 11:03:33;;;;;;;4.17;3.63;;;;;;;;;;5052153;28;20201;-83
2022/10/09 11:06:04;;;;;;;7.50;2.67;;;;;;;;;;5033711;28;20207;-83
2022/10/09 11:08:40;;;;;;;4.93;3.60;;;;;;;;;;5045588;28;20255;-83
2022/10/09 11:11:12;;;;;;;8.37;3.33;;;;;;;;;;5043789;28;20231;-83
2022/10/09 11:13:48;;;;;;;5.70;3.03;;;;;;;;;;5051347;28;20207;-83
2022/10/09 11:16:25;;;;;;;9.17;3.30;;;;;;;;;;5068910;28;20208;-83
2022/10/09 11:19:01;;;;;;;6.27;3.00;;;;;;;;;;5022769;28;20196;-83
2022/10/09 11:21:37;;;;;;;3.43;1.40;;;;;;;;;;5049200;28;20219;-83
2022/10/09 11:24:18;;;;;;;9.67;3.60;;;;;;;;;;5050972;28;20192;-83
2022/10/09 11:26:50;;;;;;;7.30;3.10;;;;;;;;;;5052041;28;20249;-83
2022/10/09 11:29:20;;;;;;;6.50;2.47;;;;;;;;;;5067742;28;20259;-83
2022/10/09 11:31:51;;;;;;;3.40;2.30;;;;;;;;;;5032940;28;20201;-83
2022/10/09 11:34:25;;;;;;;4.13;2.80;;;;;;;;;;5046015;28;20214;-83
2022/10/09 11:36:53;;;;;;;8.23;3.30;;;;;;;;;;5048798;28;20287;-83
2022/10/09 11:39:23;;;;;;;6.63;2.87;;;;;;;;;;5040951;28;20200;-83
2022/10/09 11:41:52;;;;;;;6.43;2.80;;;;;;;;;;5046571;28;20451;-83
2022/10/09 11:44:32;;;;;;;9.77;2.27;;;;;;;;;;5052704;28;20189;-82
2022/10/09 11:47:04;;;;;;;3.97;2.10;;;;;;;;;;5056745;28;20200;-83
2022/10/09 11:49:45;;;;;;;8.10;3.40;;;;;;;;;;5054761;28;20216;-83
2022/10/09 11:52:18;;;;;;;4.60;2.80;;;;;;;;;;5058849;28;20208;-83
2022/10/09 11:54:47;;;;;;;9.50;2.60;;;;;;;;;;5046608;28;20266;-83
2022/10/09 11:57:15;;;;;;;7.53;3.47;;;;;;;;;;5037264;28;20221;-83
2022/10/09 11:59:44;;;;;;;6.97;1.37;;;;;;;;;;5062999;28;20223;-83
2022/10/09 12:02:24;;;;;;;2.90;1.03;;;;;;;;;;5055786;28;20290;-83
2022/10/09 12:04:55;;;;;;;5.23;3.00;;;;;;;;;;5059482;28;20197;-83
2022/10/09 12:07:28;;;;;;;5.63;2.90;;;;;;;;;;5024426;28;20263;-83
2022/10/09 12:10:02;;;;;;;4.40;2.30;;;;;;;;;;5023289;28;20295;-83
2022/10/09 12:12:30;;;;;;;7.60;2.60;;;;;;;;;;5071641;28;20227;-83
2022/10/09 12:14:59;;;;;;;6.47;3.07;;;;;;;;;;5027865;28;20286;-83
2022/10/09 12:17:37;;;;;;;4.87;2.90;;;;;;;;;;5036789;28;20258;-83
2022/10/09 12:20:09;;;;;;;4.37;2.40;;;;;;;;;;5039595;28;20200;-83
2022/10/09 12:22:41;;;;;;;1.93;1.40;;;;;;;;;;5060368;28;20283;-83
2022/10/09 12:25:15;;;;;;;5.67;2.73;;;;;;;;;;5054049;28;20202;-83
2022/10/09 12:27:44;;;;;;;3.23;2.37;;;;;;;;;;5071048;28;20213;-84
2022/10/09 12:30:19;;;;;;;6.00;3.47;;;;;;;;;;5055696;28;20208;-83
2022/10/09 12:32:50;;;;;;;5.87;3.53;;;;;;;;;;5055457;28;20255;-83
2022/10/09 12:35:22;;;;;;;4.77;2.13;;;;;;;;;;5071293;28;20254;-83
2022/10/09 12:37:51;;;;;;;3.33;1.93;;;;;;;;;;5051648;28;20261;-83
2022/10/09 12:40:22;;;;;;;4.20;1.87;;;;;;;;;;5045907;28;20238;-83
2022/10/09 12:42:52;;;;;;;0.87;0.87;;;;;;;;;;5054287;28;20202;-83
2022/10/09 12:45:22;;;;;;;2.93;2.07;;;;;;;;;;5042547;28;20285;-83
2022/10/09 12:47:51;;;;;;;5.73;3.10;;;;;;;;;;5042766;28;20234;-83
2022/10/09 12:50:23;;;;;;;5.40;2.83;;;;;;;;;;5030064;28;20209;-83
2022/10/09 12:52:53;;;;;;;9.43;3.27;;;;;;;;;;5029642;28;20236;-83
2022/10/09 12:55:25;;;;;;;6.67;2.13;;;;;;;;;;5069595;28;20217;-83
2022/10/09 12:57:58;;;;;;;4.27;2.70;;;;;;;;;;5033394;28;20225;-83
2022/10/09 13:00:27;;;;;;;7.83;2.73;;;;;;;;;;5038564;28;20287;-83
2022/10/09 13:02:56;;;;;;;6.20;2.43;;;;;;;;;;5044730;28;20249;-83
2022/10/09 13:05:35;;;;;;;4.10;2.57;;;;;;;;;;5040908;28;20201;-83
2022/10/09 13:08:05;;;;;;;4.57;2.13;;;;;;;;;;5042159;28;20229;-83
2022/10/09 13:10:33;;;;;;;8.80;2.23;;;;;;;;;;5035874;28;20297;-83
2022/10/09 13:13:02;;;;;;;5.53;3.27;;;;;;;;;;5047789;28;20228;-83
2022/10/09 13:15:32;;;;;;;4.23;2.07;;;;;;;;;;5038585;28;20220;-83
2022/10/09 13:18:01;;;;;;;2.23;2.00;;;;;;;;;;5034751;28;20263;-83
2022/10/09 13:20:30;;;;;;;0.70;0.70;;;;;;;;;;5042115;28;20229;-83
2022/10/09 13:23:00;;;;;;;3.67;2.80;;;;;;;;;;5051470;28;20232;-83
2022/10/09 13:25:32;;;;;;;1.60;1.50;;;;;;;;;;5034998;28;20261;-83
2022/10/09 13:28:02;;;;;;;3.43;1.30;;;;;;;;;;5039355;28;20256;-83
2022/10/09 13:30:31;;;;;;;3.83;2.90;;;;;;;;;;5069642;28;20202;-83
2022/10/09 13:32:59;;;;;;;6.13;2.80;;;;;;;;;;5050103;28;20202;-82
2022/10/09 13:35:28;;;;;;;4.33;2.43;;;;;;;;;;5044908;28;20220;-82
2022/10/09 13:37:56;;;;;;;5.43;3.17;;;;;;;;;;5065161;28;20260;-83
2022/10/09 13:40:24;;;;;;;7.30;3.13;;;;;;;;;;5045918;28;20283;-83
2022/10/09 13:42:55;;;;;;;2.20;1.97;;;;;;;;;;5052789;28;20233;-83
2022/10/09 13:45:23;;;;;;;1.50;1.40;;;;;;;;;;5053766;28;20202;-83
2022/10/09 13:47:52;;;;;;;2.27;1.43;;;;;;;;;;5069231;28;20268;-83
2022/10/09 13:50:20;;;;;;;3.63;2.53;;;;;;;;;;5056858;28;20209;-82
2022/10/09 13:52:49;;;;;;;2.63;1.70;;;;;;;;;;5034473;28;20208;-83
2022/10/09 13:55:17;;;;;;;7.80;2.93;;;;;;;;;;5047251;28;20221;-83
2022/10/09 13:57:46;;;;;;;6.03;3.13;;;;;;;;;;5045796;28;20202;-83
2022/10/09 14:00:17;;;;;;;6.43;3.60;;;;;;;;;;5033672;28;20221;-83
2022/10/09 14:02:47;;;;;;;4.43;2.50;;;;;;;;;;5042481;28;20232;-83
2022/10/09 14:05:15;;;;;;;2.83;1.90;;;;;;;;;;5069781;28;20210;-83
2022/10/09 14:07:44;;;;;;;1.90;1.30;;;;;;;;;;5054862;28;20292;-83
2022/10/09 14:10:12;;;;;;;3.30;1.70;;;;;;;;;;5056563;28;20238;-83
2022/10/09 14:12:41;;;;;;;5.03;2.87;;;;;;;;;;5044361;28;20220;-83
2022/10/09 14:15:09;;;;;;;4.83;2.83;;;;;;;;;;5046874;28;20213;-83
2022/10/09 14:17:39;;;;;;;4.30;2.47;;;;;;;;;;5045371;28;20198;-83
2022/10/09 14:20:08;;;;;;;0.57;0.57;;;;;;;;;;5035899;28;20202;-83
2022/10/09 14:22:36;;;;;;;1.97;1.77;;;;;;;;;;5033527;28;20198;-83
2022/10/09 14:25:05;;;;;;;5.97;2.90;;;;;;;;;;5038926;28;20189;-83
2022/10/09 14:27:33;;;;;;;3.83;2.47;;;;;;;;;;5041295;28;20233;-83
2022/10/09 14:30:07;;;;;;;5.90;3.07;;;;;;;;;;5027712;28;20284;-83
2022/10/09 14:32:36;;;;;;;7.87;3.57;;;;;;;;;;5051639;28;20220;-83
2022/10/09 14:35:06;;;;;;;4.53;2.20;;;;;;;;;;5053589;28;20197;-83
2022/10/09 14:37:35;;;;;;;5.50;2.30;;;;;;;;;;5040283;28;20234;-83
2022/10/09 14:40:09;;;;;;;5.47;2.87;;;;;;;;;;5054088;28;20197;-83
2022/10/09 14:42:38;;;;;;;7.17;2.80;;;;;;;;;;5049633;28;20202;-83
2022/10/09 14:45:07;;;;;;;8.60;3.03;;;;;;;;;;5032974;28;20206;-83
2022/10/09 14:47:36;;;;;;;2.53;2.07;;;;;;;;;;5032777;28;20203;-83
2022/10/09 14:50:06;;;;;;;4.13;2.77;;;;;;;;;;5032759;28;20210;-83
2022/10/09 14:52:35;;;;;;;3.23;2.30;;;;;;;;;;5045441;28;20213;-83
2022/10/09 14:55:03;;;;;;;5.77;3.27;;;;;;;;;;5044309;28;20205;-83